AirNav   Air Wisconsin pilot careers
 
 995 users online  

KNXF MCOLF Camp Pendleton (Red Beach) Airport
Oceanside, California, USA


FAA INFORMATION EFFECTIVE 01 FEBRUARY 2018

Location

FAA Identifier: NXF
Lat/Long: 33-17-08.3180N / 117-27-23.3220W
33-17.138633N / 117-27.388700W
33.2856439 / -117.4564783
(estimated)
Elevation: 89 ft. / 27 m (estimated)
Variation: 13E (2000)
From city: 6 miles N of OCEANSIDE, CA
Time zone: UTC -8 (UTC -7 during Daylight Saving Time)
Zip code: 92054

Airport Operations

Airport use: Private use. Permission required prior to landing
Activation date: 03/2009
Control tower: no
ARTCC: LOS ANGELES CENTER
FSS: SAN DIEGO FLIGHT SERVICE STATION
NOTAMs facility: SAN (NOTAM-D service available)
Attendance: UNATNDD
Segmented circle: no

Airport Communications

WX ASOS at OKB (7 nm SE): 127.8 (760-439-9683)
WX AWOS-3P at L18 (11 nm E): 118.425 (760-723-6073)
WX ASOS at CRQ (13 nm SE): PHONE 760-930-0864

Nearby radio navigation aids

VOR radial/distance  VOR name  Freq  Var
OCNr309/3.3OCEANSIDE VORTAC115.3015E
ELBr136/27.2EL TORO VOR/DME117.2014E
MZBr324/32.4MISSION BAY VORTAC117.8015E
HDFr191/(32.4)HOMELAND VOR113.4014E
PDZr159/38.1PARADISE VORTAC112.2015E

Airport Services

Runway Information

Runway 9/27

Dimensions: 1513 x 72 ft. / 461 x 22 m
Surface: concrete
RUNWAY 9  RUNWAY 27
Latitude: 33-17.156667N33-17.120580N
Longitude: 117-27.535645W117-27.241753W
Elevation: 86.3 ft.88.5 ft.
Traffic pattern: leftleft
Runway heading: 085 magnetic, 098 true265 magnetic, 278 true
Markings: basicbasic
Touchdown point: yes, no lightsyes, no lights

Airport Ownership and Management from official FAA records

Ownership: Privately-owned
Owner: US NAVY
OCEANOGRAPHIC OFC - CODE 3142
WASHINGTON, DC 20373

Additional Remarks

COMMUNICATIONS: MCB RANGE CON - 123.2 301.9 REMARKS (CALL LONG RIFLE).
RSTD - CTC MCB CAMP PENDLETON RANGE CONTROL FOR SKED DSN 365-4219/3510, C760-725-4219/3510.

Instrument Procedures

There are no published instrument procedures at KNXF.

Some nearby airports with instrument procedures:

KNFG - Camp Pendleton MCAS (Munn Field) Airport (5 nm E)
KOKB - Bob Maxwell Memorial Airfield (7 nm SE)
L18 - Fallbrook Community Airpark (11 nm E)
KCRQ - Mc Clellan-Palomar Airport (13 nm SE)
F70 - French Valley Airport (24 nm NE)
 
Loc | Ops | Rwys | IFR | FBO | Links
Com | Nav | Svcs | Stats | Notes

San Bernardino International Airport Authority
 
Aerial photo
No photo
 
Sectional chart

 
Airport distance calculator
Flying to MCOLF Camp Pendleton (Red Beach) Airport? Find the distance to fly.

From to KNXF

Sunrise and sunset
Times for 25-Feb-2018
 Local
(UTC-8)
 Zulu
(UTC)
Morning civil twilight05:5913:59
Sunrise06:2414:24
Sunset17:4201:42
Evening civil twilight18:0702:07

Current date and time
Zulu (UTC)  26-Feb-2018 00:08:08
Local (UTC-8)  25-Feb-2018 16:08:08
 
METAR
KNXF 252356Z AUTO 31014KT 10SM -RA CLR 16/09 A3011 RMK AO2 RAB13E33B52 SLP282 P0000 60000 T01610089 10172 20144 56015 $
KNFG 
6nm E 
252355Z AUTO 27008KT 10SM CLR 18/M03 A3009 RMK AO2 SLP189 T01831033 10206 20156 56014
KOKB 
7nm SE 
252352Z AUTO 28011KT 10SM CLR 17/03 A3009 RMK AO2 SLP190 T01720033 10189 20144 56016
KL18 
11nm E 
252355Z AUTO 23011KT 10SM CLR 19/M03 A3010 RMK AO2
KCRQ 
13nm SE 
252353Z AUTO 27007KT 10SM CLR 16/05 A3010 RMK AO2 SLP191 T01610050 10167 20144 56014
TAF
KNFG 
6nm E 
2521/2621 23007KT 9999 SKC QNH3007INS BECMG 2601/2603 VRB05KT 9999 SKC QNH3002INS BECMG 2616/2618 22010KT 9999 SCT100 QNH2997INS AUTOMATED SENSOR METWATCH 2521 TIL 2615 T20/2521Z T01/2613Z
KCRQ 
13nm SE 
251726Z 2518/2618 VRB04KT P6SM SKC FM252000 26008KT P6SM SKC FM260000 VRB04KT P6SM FEW020
NOTAMs
Click for the latest NOTAMs
NOTAMs are issued by the DoD/FAA and will open in a separate window not controlled by AirNav.

 

 
 

Would you like to see your business listed on this page?

 If your business provides an interesting product or service to pilots, flight crews, aircraft, or users of the MCOLF Camp Pendleton (Red Beach) Airport, you should consider listing it here.  To start the listing process, click on the button below
 
Add a business
 

Other Pages about MCOLF Camp Pendleton (Red Beach) Airport

Update a link
 
Copyright © AirNav, LLC. All rights reserved. Privacy Policy  Contact